Terminal Aerodrome Forecast
Issued by NWS

Home | Current Version | Previous Version | Text Only | Print | Product List | Glossary On
Versions: 1 2 3 4 5 6 7 8 9 10 11 12 13 14 15 16 17 18
000
FTUS45 KBOI 100533
TAFJER
TAF
KJER 100533Z 1006/1106 05006KT P6SM -RA OVC050
     FM100900 22009KT 6SM -RA BR SCT010 OVC025
     FM102000 23009KT P6SM -SHRA OVC035
     FM110200 24011KT P6SM VCSH SCT025 OVC050=

USA.gov is the U.S. government's official web portal to all federal, state and local government web resources and services.